sensor_id;sensor_type;location;lat;lon;timestamp;P1;durP1;ratioP1;P2;durP2;ratioP2
40204;SDS011;26963;42.666;23.366;2022-10-16T22:14:18;10.07;;;5.88;;
40204;SDS011;26963;42.666;23.366;2022-10-16T22:16:46;11.13;;;6.50;;
40204;SDS011;26963;42.666;23.366;2022-10-16T22:19:25;11.80;;;6.50;;
40204;SDS011;26963;42.666;23.366;2022-10-16T22:21:52;8.27;;;5.88;;
40204;SDS011;26963;42.666;23.366;2022-10-16T22:24:21;11.75;;;6.75;;
40204;SDS011;26963;42.666;23.366;2022-10-16T22:27:00;11.50;;;6.43;;
40204;SDS011;26963;42.666;23.366;2022-10-16T22:29:32;7.32;;;5.43;;
40204;SDS011;26963;42.666;23.366;2022-10-16T22:31:58;9.25;;;6.22;;
40204;SDS011;26963;42.666;23.366;2022-10-16T22:34:23;10.95;;;7.45;;
40204;SDS011;26963;42.666;23.366;2022-10-16T22:36:49;12.70;;;7.20;;
40204;SDS011;26963;42.666;23.366;2022-10-16T22:39:17;12.90;;;7.72;;
40204;SDS011;26963;42.666;23.366;2022-10-16T22:41:43;11.65;;;7.35;;
40204;SDS011;26963;42.666;23.366;2022-10-16T22:44:11;12.25;;;8.25;;
40204;SDS011;26963;42.666;23.366;2022-10-16T22:46:37;13.18;;;8.63;;
40204;SDS011;26963;42.666;23.366;2022-10-16T22:49:09;11.77;;;7.75;;
40204;SDS011;26963;42.666;23.366;2022-10-16T22:51:37;13.60;;;8.88;;
40204;SDS011;26963;42.666;23.366;2022-10-16T22:54:02;13.18;;;8.45;;
40204;SDS011;26963;42.666;23.366;2022-10-16T22:56:28;11.10;;;8.18;;
40204;SDS011;26963;42.666;23.366;2022-10-16T22:58:53;15.38;;;8.48;;
40204;SDS011;26963;42.666;23.366;2022-10-16T23:01:21;10.73;;;8.07;;
40204;SDS011;26963;42.666;23.366;2022-10-16T23:06:20;11.80;;;6.78;;
40204;SDS011;26963;42.666;23.366;2022-10-16T23:08:49;11.20;;;7.18;;
40204;SDS011;26963;42.666;23.366;2022-10-16T23:11:18;15.23;;;9.02;;
40204;SDS011;26963;42.666;23.366;2022-10-16T23:13:44;16.10;;;8.65;;
40204;SDS011;26963;42.666;23.366;2022-10-16T23:16:14;12.50;;;8.10;;
40204;SDS011;26963;42.666;23.366;2022-10-16T23:18:50;10.93;;;7.68;;
40204;SDS011;26963;42.666;23.366;2022-10-16T23:21:20;13.75;;;7.72;;
40204;SDS011;26963;42.666;23.366;2022-10-16T23:23:49;12.98;;;7.32;;
40204;SDS011;26963;42.666;23.366;2022-10-16T23:26:34;13.25;;;7.72;;
40204;SDS011;26963;42.666;23.366;2022-10-16T23:29:03;12.80;;;7.78;;
40204;SDS011;26963;42.666;23.366;2022-10-16T23:31:29;20.55;;;8.70;;
40204;SDS011;26963;42.666;23.366;2022-10-16T23:33:55;13.77;;;8.15;;
40204;SDS011;26963;42.666;23.366;2022-10-16T23:36:24;15.38;;;8.48;;
40204;SDS011;26963;42.666;23.366;2022-10-16T23:38:50;11.82;;;7.78;;
40204;SDS011;26963;42.666;23.366;2022-10-16T23:41:16;12.60;;;9.48;;
40204;SDS011;26963;42.666;23.366;2022-10-16T23:43:46;14.55;;;9.50;;
40204;SDS011;26963;42.666;23.366;2022-10-16T23:46:15;16.90;;;9.90;;
40204;SDS011;26963;42.666;23.366;2022-10-16T23:48:42;15.82;;;10.73;;
40204;SDS011;26963;42.666;23.366;2022-10-16T23:51:11;13.90;;;10.02;;
40204;SDS011;26963;42.666;23.366;2022-10-16T23:53:36;14.55;;;10.68;;
40204;SDS011;26963;42.666;23.366;2022-10-16T23:56:02;13.95;;;9.30;;
40204;SDS011;26963;42.666;23.366;2022-10-16T23:58:29;12.60;;;9.25;;
